Flight Track Log - Related Links

Times and Time Zones

All times are in EDT time to prevent confusion due to time zone crossing. See the SKW5564 flight status page for this flight to view local times or setup timezone preferences in your user account.

Time Position Orientation Groundspeed Altitude Reporting Facility
EDT Latitude Longitude Course Direction KTS MPH feet Rate Location/Type
Mon 10:38:39 AM 42.9122 -85.5289 253° West 167 192 2,700  Level Chicago Center
Mon 10:39:41 AM 42.9458 -85.5914 306° West 236 272 5,300 2,371 Climbing Chicago Center
Mon 10:40:43 AM 42.9008 -85.6819 236° Southwest 292 336 7,600 2,613 Climbing Chicago Center
Mon 10:42:00 AM 42.7108 -85.9676 246° West  Level FlightAware Approximate
Mon 10:42:00 AM 42.8527 -85.8027 246° West  Level Estimated
Mon 10:42:47 AM 42.7892 -85.8958 246° West 328 377 13,400  Level Chicago Center
Mon 10:43:00 AM 42.6814 -86.0589 253° West  Level FlightAware Approximate
Mon 10:43:49 AM 42.7575 -86.0142 250° West 332 382 15,700  Level Chicago Center
Mon 10:44:00 AM 42.6587 -86.1610 253° West  Level FlightAware Approximate
Mon 10:44:52 AM 42.7228 -86.1431 250° West 354 407 16,000  Level Chicago Center
Mon 10:45:54 AM 42.6850 -86.2864 250° West 398 458 16,000  Level Chicago Center
Mon 10:46:56 AM 42.6453 -86.4261 249° West 396 456 16,000  Level Chicago Center
Mon 10:47:58 AM 42.6083 -86.5653 250° West 393 452 16,000  Level Chicago Center
Mon 10:49:00 AM 42.5692 -86.7044 249° West 395 455 16,000 -484 Level Chicago Center
Mon 10:50:02 AM 42.5256 -86.8717 251° West 393 452 15,000 -1,210 Descending Chicago Center
Mon 10:51:04 AM 42.4861 -87.0097 249° West 393 452 13,500 -1,500 Descending Chicago Center
Mon 10:52:06 AM 42.4464 -87.1450 248° West 388 447 11,900 -1,610 Descending Chicago Center
Mon 10:53:07 AM 42.4092 -87.2789 249° West 383 441 10,200 -927 Descending Chicago Center
Mon 10:54:09 AM 42.3692 -87.4247 250° West 377 434 10,000 -97 Descending Chicago Center
Mon 10:55:11 AM 42.3239 -87.5481 244° Southwest 380 437 10,000  Level Chicago Center
Mon 10:56:13 AM 42.2453 -87.6339 219° Southwest 368 423 10,000 -484 Level Chicago Center
Mon 10:57:15 AM 42.1767 -87.7047 217° Southwest 320 368 9,000 -1,065 Descending Chicago Center
Mon 10:58:17 AM 42.0978 -87.7967 221° Southwest 314 361 7,800 -968 Descending Chicago Center
Mon 10:59:19 AM 42.0922 -87.9092 266° West 302 348 7,000 -387 Descending Chicago Center
Mon 11:00:21 AM 42.0919 -88.0169 270° West 296 341 7,000 -194 Level Chicago Center
Mon 11:01:23 AM 42.0911 -88.1125 269° West 269 310 6,600 -843 Descending Chicago Center
Mon 11:03:26 AM 42.0281 -88.2303 234° Southwest 247 284 4,400 -843 Descending Chicago Center
Mon 11:04:28 AM 41.9711 -88.1789 146° Southeast 233 268 4,000 -387 Descending Chicago Center

Login

Don't have an account? Register now (free) for customized features, flight alerts, and more!